Aeroporto :
LOGIN :

Iscrizione | Disclaimer

   EN    FR    IT 

 










Sommario :    VFR   VFR Marginale   IFR   IFR Intensivo   IFR Molto Intensivo
Visibilità : 
Base nubi : 
>= 8 km
>= 3000ft
5 / 8 km
1000 / 3000 ft
1500m / 5 km
500 / 1000 ft
800 / 1500m
200 / 500 ft
< 800m
< 200 ft
Simboli :   Temporali  Nebbia  Neve Forte  Precipitazioni Forti  Vento > 20 kt
SIGMETs :   Varie  Temporali  Ghiacco  Turbolenza  Onda orograficha  Ceneri Vulcaniche






- Altitudine del aeroporto : 3 ft
- Codice IATA : DHR


EHKD - Den Helder De Kooy

ULTIMO METAR :
  • 090225Z AUTO 22018G28KT 9999 FEW027 SCT033 BKN049 09/04 Q0991 BLU

METARs OBSOLETI :
  • 090155Z AUTO 23018KT 9999 FEW023 SCT031 BKN037 09/04 Q0991 BLU
  • 090125Z AUTO 23018KT 200V260 9999 FEW027 SCT033 08/04 Q0991 BLU
  • 090055Z AUTO 24021KT 9999 FEW027 SCT033 08/03 Q0991 BLU
  • 090028Z AUTO 24021G32KT 9999 FEW023 SCT027 BKN046 08/04 Q0991 BLU
  • 090025Z AUTO 24021G32KT 210V270 9999 FEW016CB SCT023 BKN027 BKN032 08/04 Q0992 RERA REDZ WHT
  • 090016Z AUTO 24021KT 9999 RA FEW015CB SCT024 BKN039 08/04 Q0992 WHT
  • 082355Z AUTO 24021KT 9999 FEW025 SCT033 BKN038 08/04 Q0992 BLU

TAF TAF EHKD
Valido dal 09 a 02 ore il 09 a 14 ore UTC


090116Z 0902/0914 23020G30KT 9999 FEW025 SCT045
TEMPO 0902/0914 24022G35KT FEW015 SCT020CB BKN030
PROB30
TEMPO 0902/0914 4000 SHRA TSRA SCT012 SCT018CB BKN020
BECMG 0904/0906 22012G22KT
BECMG 0910/0913 32022G37KT
PROB40
TEMPO 0911/0914 33024G42KT



MetMap, La meteo Aeronautica in un colpo d'occhio ! - Copyright ORBIFLY Dicembre 2007 - Disclaimer

ORBIFLY MET'MAP TEAM :

Programmazione e sviluppo : Alexandra Zaïnal
Concezione : Baudouin d'Aumeries
Aiuto per la programmazione : Marc-Olivier Méhu
Supporto tecnico e logistico : Manuel Goepfert
Aiuto per la traduzione : Arnaldo La Scala

Contatto : metmap@orbifly.com




FONTI E CREDITI :

   NOAA